sensor_id;sensor_type;location;lat;lon;timestamp;P1;durP1;ratioP1;P2;durP2;ratioP2
33094;SDS011;19459;53.044;8.910;2023-10-08T00:00:46;3.35;;;2.08;;
33094;SDS011;19459;53.044;8.910;2023-10-08T00:03:19;3.30;;;2.50;;
33094;SDS011;19459;53.044;8.910;2023-10-08T00:05:48;5.20;;;2.20;;
33094;SDS011;19459;53.044;8.910;2023-10-08T00:08:16;6.78;;;3.13;;
33094;SDS011;19459;53.044;8.910;2023-10-08T00:10:42;4.72;;;2.65;;
33094;SDS011;19459;53.044;8.910;2023-10-08T00:13:10;3.47;;;2.50;;
33094;SDS011;19459;53.044;8.910;2023-10-08T00:15:43;4.30;;;2.57;;
33094;SDS011;19459;53.044;8.910;2023-10-08T00:18:19;5.50;;;3.03;;
33094;SDS011;19459;53.044;8.910;2023-10-08T00:20:47;8.45;;;3.28;;
33094;SDS011;19459;53.044;8.910;2023-10-08T00:23:40;8.50;;;3.90;;
33094;SDS011;19459;53.044;8.910;2023-10-08T00:26:25;8.68;;;3.08;;
33094;SDS011;19459;53.044;8.910;2023-10-08T00:29:02;3.90;;;2.42;;
33094;SDS011;19459;53.044;8.910;2023-10-08T00:31:43;4.15;;;2.88;;
33094;SDS011;19459;53.044;8.910;2023-10-08T00:34:14;5.18;;;3.17;;
33094;SDS011;19459;53.044;8.910;2023-10-08T00:36:45;7.60;;;3.58;;
33094;SDS011;19459;53.044;8.910;2023-10-08T00:39:13;4.28;;;3.47;;
33094;SDS011;19459;53.044;8.910;2023-10-08T00:41:45;5.10;;;3.80;;
33094;SDS011;19459;53.044;8.910;2023-10-08T00:44:12;5.68;;;3.22;;
33094;SDS011;19459;53.044;8.910;2023-10-08T00:46:40;3.95;;;2.75;;
33094;SDS011;19459;53.044;8.910;2023-10-08T00:49:13;4.80;;;3.33;;
33094;SDS011;19459;53.044;8.910;2023-10-08T00:51:48;5.65;;;3.10;;
33094;SDS011;19459;53.044;8.910;2023-10-08T00:54:39;7.85;;;3.00;;
33094;SDS011;19459;53.044;8.910;2023-10-08T00:57:31;5.28;;;2.95;;
33094;SDS011;19459;53.044;8.910;2023-10-08T01:00:01;9.35;;;3.80;;
33094;SDS011;19459;53.044;8.910;2023-10-08T01:02:31;9.05;;;3.03;;
33094;SDS011;19459;53.044;8.910;2023-10-08T01:05:16;8.15;;;4.13;;
33094;SDS011;19459;53.044;8.910;2023-10-08T01:07:50;14.27;;;4.22;;
33094;SDS011;19459;53.044;8.910;2023-10-08T01:10:18;11.90;;;4.07;;
33094;SDS011;19459;53.044;8.910;2023-10-08T01:12:49;13.95;;;3.75;;
33094;SDS011;19459;53.044;8.910;2023-10-08T01:15:32;19.88;;;5.40;;
33094;SDS011;19459;53.044;8.910;2023-10-08T01:18:01;14.38;;;4.60;;
33094;SDS011;19459;53.044;8.910;2023-10-08T01:20:50;18.15;;;5.15;;
33094;SDS011;19459;53.044;8.910;2023-10-08T01:23:18;12.95;;;3.70;;
33094;SDS011;19459;53.044;8.910;2023-10-08T01:25:51;11.93;;;3.72;;
33094;SDS011;19459;53.044;8.910;2023-10-08T01:28:22;11.63;;;3.75;;
33094;SDS011;19459;53.044;8.910;2023-10-08T01:30:55;13.68;;;4.43;;
33094;SDS011;19459;53.044;8.910;2023-10-08T01:33:25;12.90;;;3.95;;
33094;SDS011;19459;53.044;8.910;2023-10-08T01:36:02;9.00;;;3.38;;
33094;SDS011;19459;53.044;8.910;2023-10-08T01:38:32;13.38;;;3.38;;
33094;SDS011;19459;53.044;8.910;2023-10-08T01:40:58;11.95;;;3.65;;
33094;SDS011;19459;53.044;8.910;2023-10-08T01:43:45;15.45;;;4.68;;
33094;SDS011;19459;53.044;8.910;2023-10-08T01:46:11;11.63;;;3.63;;
33094;SDS011;19459;53.044;8.910;2023-10-08T01:48:37;11.80;;;3.22;;
33094;SDS011;19459;53.044;8.910;2023-10-08T01:51:04;10.82;;;3.63;;
33094;SDS011;19459;53.044;8.910;2023-10-08T01:53:40;10.07;;;3.38;;
33094;SDS011;19459;53.044;8.910;2023-10-08T01:56:06;11.20;;;3.92;;
33094;SDS011;19459;53.044;8.910;2023-10-08T01:58:35;10.77;;;3.65;;
33094;SDS011;19459;53.044;8.910;2023-10-08T02:01:02;10.23;;;4.10;;
33094;SDS011;19459;53.044;8.910;2023-10-08T02:03:30;13.52;;;3.28;;
33094;SDS011;19459;53.044;8.910;2023-10-08T02:05:56;12.23;;;2.90;;
33094;SDS011;19459;53.044;8.910;2023-10-08T02:08:24;9.32;;;3.85;;
33094;SDS011;19459;53.044;8.910;2023-10-08T02:10:55;9.50;;;2.83;;
33094;SDS011;19459;53.044;8.910;2023-10-08T02:13:21;17.02;;;4.30;;
33094;SDS011;19459;53.044;8.910;2023-10-08T02:15:50;14.85;;;3.65;;
33094;SDS011;19459;53.044;8.910;2023-10-08T02:18:17;10.35;;;4.18;;
33094;SDS011;19459;53.044;8.910;2023-10-08T02:20:44;18.63;;;3.10;;
33094;SDS011;19459;53.044;8.910;2023-10-08T02:23:10;10.85;;;2.88;;
33094;SDS011;19459;53.044;8.910;2023-10-08T02:25:37;11.35;;;2.85;;
33094;SDS011;19459;53.044;8.910;2023-10-08T02:28:05;7.57;;;2.78;;
33094;SDS011;19459;53.044;8.910;2023-10-08T02:30:37;13.35;;;3.13;;
33094;SDS011;19459;53.044;8.910;2023-10-08T02:33:04;13.00;;;3.20;;
33094;SDS011;19459;53.044;8.910;2023-10-08T02:35:43;8.43;;;2.78;;
33094;SDS011;19459;53.044;8.910;2023-10-08T02:38:11;10.70;;;2.63;;
33094;SDS011;19459;53.044;8.910;2023-10-08T02:40:41;8.77;;;2.75;;
33094;SDS011;19459;53.044;8.910;2023-10-08T02:43:13;6.13;;;1.90;;
33094;SDS011;19459;53.044;8.910;2023-10-08T02:45:42;8.77;;;2.22;;
33094;SDS011;19459;53.044;8.910;2023-10-08T02:48:14;8.45;;;2.22;;
33094;SDS011;19459;53.044;8.910;2023-10-08T02:50:44;9.38;;;2.60;;
33094;SDS011;19459;53.044;8.910;2023-10-08T02:53:13;8.95;;;2.35;;
33094;SDS011;19459;53.044;8.910;2023-10-08T02:55:45;7.53;;;1.98;;
33094;SDS011;19459;53.044;8.910;2023-10-08T02:58:11;7.25;;;2.97;;
33094;SDS011;19459;53.044;8.910;2023-10-08T03:00:44;7.10;;;2.25;;
33094;SDS011;19459;53.044;8.910;2023-10-08T03:03:15;10.63;;;2.67;;
33094;SDS011;19459;53.044;8.910;2023-10-08T03:08:21;8.73;;;2.50;;
33094;SDS011;19459;53.044;8.910;2023-10-08T03:10:49;12.95;;;2.97;;
33094;SDS011;19459;53.044;8.910;2023-10-08T03:13:27;10.35;;;2.15;;
33094;SDS011;19459;53.044;8.910;2023-10-08T03:15:53;4.97;;;2.50;;
33094;SDS011;19459;53.044;8.910;2023-10-08T03:18:26;15.90;;;2.80;;
33094;SDS011;19459;53.044;8.910;2023-10-08T03:21:15;8.38;;;2.83;;
33094;SDS011;19459;53.044;8.910;2023-10-08T03:24:07;10.50;;;4.45;;
33094;SDS011;19459;53.044;8.910;2023-10-08T03:26:54;8.95;;;3.78;;
33094;SDS011;19459;53.044;8.910;2023-10-08T03:29:30;9.68;;;4.22;;
33094;SDS011;19459;53.044;8.910;2023-10-08T03:32:09;10.55;;;4.35;;
33094;SDS011;19459;53.044;8.910;2023-10-08T03:34:43;13.02;;;5.05;;
33094;SDS011;19459;53.044;8.910;2023-10-08T03:37:14;14.30;;;4.85;;
33094;SDS011;19459;53.044;8.910;2023-10-08T03:39:47;8.98;;;5.18;;
33094;SDS011;19459;53.044;8.910;2023-10-08T03:42:23;11.82;;;5.25;;
33094;SDS011;19459;53.044;8.910;2023-10-08T03:44:50;14.07;;;6.45;;
33094;SDS011;19459;53.044;8.910;2023-10-08T03:47:20;10.90;;;5.07;;
33094;SDS011;19459;53.044;8.910;2023-10-08T03:52:19;12.80;;;5.45;;
33094;SDS011;19459;53.044;8.910;2023-10-08T03:54:50;12.77;;;6.18;;
33094;SDS011;19459;53.044;8.910;2023-10-08T04:00:06;16.70;;;7.13;;
33094;SDS011;19459;53.044;8.910;2023-10-08T04:02:53;12.10;;;7.05;;
33094;SDS011;19459;53.044;8.910;2023-10-08T04:05:21;13.30;;;7.20;;
33094;SDS011;19459;53.044;8.910;2023-10-08T04:07:52;17.88;;;7.70;;
33094;SDS011;19459;53.044;8.910;2023-10-08T04:10:25;17.48;;;6.93;;
33094;SDS011;19459;53.044;8.910;2023-10-08T04:13:24;14.63;;;6.90;;
33094;SDS011;19459;53.044;8.910;2023-10-08T04:15:49;13.02;;;7.18;;
33094;SDS011;19459;53.044;8.910;2023-10-08T04:18:15;17.10;;;7.22;;
33094;SDS011;19459;53.044;8.910;2023-10-08T04:20:41;17.13;;;7.43;;
33094;SDS011;19459;53.044;8.910;2023-10-08T04:23:26;18.58;;;7.28;;
33094;SDS011;19459;53.044;8.910;2023-10-08T04:25:51;14.65;;;6.57;;
33094;SDS011;19459;53.044;8.910;2023-10-08T04:28:20;20.65;;;7.38;;
33094;SDS011;19459;53.044;8.910;2023-10-08T04:30:47;13.55;;;6.88;;
33094;SDS011;19459;53.044;8.910;2023-10-08T04:33:13;14.13;;;5.97;;
33094;SDS011;19459;53.044;8.910;2023-10-08T04:35:43;17.02;;;6.30;;
33094;SDS011;19459;53.044;8.910;2023-10-08T04:38:16;18.15;;;6.03;;
33094;SDS011;19459;53.044;8.910;2023-10-08T04:43:15;14.38;;;6.15;;
33094;SDS011;19459;53.044;8.910;2023-10-08T04:45:53;13.45;;;6.13;;
33094;SDS011;19459;53.044;8.910;2023-10-08T04:48:22;12.43;;;5.75;;
33094;SDS011;19459;53.044;8.910;2023-10-08T04:50:48;20.00;;;5.57;;
33094;SDS011;19459;53.044;8.910;2023-10-08T04:53:25;13.57;;;5.30;;
33094;SDS011;19459;53.044;8.910;2023-10-08T04:55:56;13.63;;;5.43;;
33094;SDS011;19459;53.044;8.910;2023-10-08T04:58:42;15.15;;;5.88;;
33094;SDS011;19459;53.044;8.910;2023-10-08T05:01:16;12.18;;;5.10;;
33094;SDS011;19459;53.044;8.910;2023-10-08T05:03:52;19.15;;;5.78;;
33094;SDS011;19459;53.044;8.910;2023-10-08T05:06:25;13.57;;;5.80;;
33094;SDS011;19459;53.044;8.910;2023-10-08T05:08:59;12.13;;;5.18;;
33094;SDS011;19459;53.044;8.910;2023-10-08T05:11:34;14.52;;;5.35;;
33094;SDS011;19459;53.044;8.910;2023-10-08T05:14:15;12.15;;;5.38;;
33094;SDS011;19459;53.044;8.910;2023-10-08T05:17:16;13.10;;;4.97;;
33094;SDS011;19459;53.044;8.910;2023-10-08T05:19:45;14.55;;;6.38;;
33094;SDS011;19459;53.044;8.910;2023-10-08T05:22:26;17.08;;;5.35;;
33094;SDS011;19459;53.044;8.910;2023-10-08T05:24:52;11.77;;;5.20;;
33094;SDS011;19459;53.044;8.910;2023-10-08T05:27:43;13.80;;;5.20;;
33094;SDS011;19459;53.044;8.910;2023-10-08T05:30:13;24.25;;;6.30;;
33094;SDS011;19459;53.044;8.910;2023-10-08T05:33:02;14.35;;;5.30;;
33094;SDS011;19459;53.044;8.910;2023-10-08T05:35:42;15.93;;;5.75;;
33094;SDS011;19459;53.044;8.910;2023-10-08T05:38:11;14.13;;;6.10;;
33094;SDS011;19459;53.044;8.910;2023-10-08T05:40:48;15.15;;;6.45;;
33094;SDS011;19459;53.044;8.910;2023-10-08T05:43:21;18.50;;;5.93;;
33094;SDS011;19459;53.044;8.910;2023-10-08T05:46:14;18.38;;;6.20;;
33094;SDS011;19459;53.044;8.910;2023-10-08T05:48:53;20.13;;;6.47;;
33094;SDS011;19459;53.044;8.910;2023-10-08T05:51:35;15.35;;;6.25;;
33094;SDS011;19459;53.044;8.910;2023-10-08T05:54:13;20.73;;;5.95;;
33094;SDS011;19459;53.044;8.910;2023-10-08T05:56:52;16.67;;;7.03;;
33094;SDS011;19459;53.044;8.910;2023-10-08T05:59:43;13.10;;;4.50;;
33094;SDS011;19459;53.044;8.910;2023-10-08T06:02:20;11.13;;;5.57;;
33094;SDS011;19459;53.044;8.910;2023-10-08T06:05:06;14.05;;;5.70;;
33094;SDS011;19459;53.044;8.910;2023-10-08T06:07:47;13.15;;;6.10;;
33094;SDS011;19459;53.044;8.910;2023-10-08T06:10:39;15.80;;;6.28;;
33094;SDS011;19459;53.044;8.910;2023-10-08T06:13:08;14.05;;;6.30;;
33094;SDS011;19459;53.044;8.910;2023-10-08T06:16:08;15.13;;;6.17;;
33094;SDS011;19459;53.044;8.910;2023-10-08T06:18:34;13.73;;;5.53;;
33094;SDS011;19459;53.044;8.910;2023-10-08T06:21:04;16.33;;;5.95;;
33094;SDS011;19459;53.044;8.910;2023-10-08T06:23:33;9.85;;;5.25;;
33094;SDS011;19459;53.044;8.910;2023-10-08T06:26:01;12.95;;;4.75;;
33094;SDS011;19459;53.044;8.910;2023-10-08T06:28:40;12.52;;;4.65;;
33094;SDS011;19459;53.044;8.910;2023-10-08T06:31:09;11.57;;;4.65;;
33094;SDS011;19459;53.044;8.910;2023-10-08T06:33:41;12.00;;;6.05;;
33094;SDS011;19459;53.044;8.910;2023-10-08T06:36:09;14.82;;;5.85;;
33094;SDS011;19459;53.044;8.910;2023-10-08T06:38:36;12.73;;;5.22;;
33094;SDS011;19459;53.044;8.910;2023-10-08T06:41:03;19.40;;;5.93;;
33094;SDS011;19459;53.044;8.910;2023-10-08T06:43:35;9.45;;;4.93;;
33094;SDS011;19459;53.044;8.910;2023-10-08T06:46:02;13.32;;;5.97;;
33094;SDS011;19459;53.044;8.910;2023-10-08T06:48:32;11.00;;;5.05;;
33094;SDS011;19459;53.044;8.910;2023-10-08T06:50:59;15.38;;;6.95;;
33094;SDS011;19459;53.044;8.910;2023-10-08T06:53:56;14.23;;;6.38;;
33094;SDS011;19459;53.044;8.910;2023-10-08T06:56:26;16.90;;;6.40;;
33094;SDS011;19459;53.044;8.910;2023-10-08T06:58:52;15.98;;;5.68;;
33094;SDS011;19459;53.044;8.910;2023-10-08T07:01:21;14.18;;;5.22;;
33094;SDS011;19459;53.044;8.910;2023-10-08T07:03:49;17.20;;;5.72;;
33094;SDS011;19459;53.044;8.910;2023-10-08T07:06:28;14.38;;;4.72;;
33094;SDS011;19459;53.044;8.910;2023-10-08T07:08:59;10.40;;;4.20;;
33094;SDS011;19459;53.044;8.910;2023-10-08T07:11:30;11.80;;;4.32;;
33094;SDS011;19459;53.044;8.910;2023-10-08T07:14:01;11.82;;;3.80;;
33094;SDS011;19459;53.044;8.910;2023-10-08T07:16:28;12.73;;;3.58;;
33094;SDS011;19459;53.044;8.910;2023-10-08T07:18:58;12.00;;;3.65;;
33094;SDS011;19459;53.044;8.910;2023-10-08T07:21:27;13.95;;;3.67;;
33094;SDS011;19459;53.044;8.910;2023-10-08T07:23:54;13.32;;;3.55;;
33094;SDS011;19459;53.044;8.910;2023-10-08T07:26:25;10.85;;;3.20;;
33094;SDS011;19459;53.044;8.910;2023-10-08T07:29:00;8.57;;;3.45;;
33094;SDS011;19459;53.044;8.910;2023-10-08T07:31:34;8.77;;;3.05;;
33094;SDS011;19459;53.044;8.910;2023-10-08T07:34:06;12.20;;;3.17;;
33094;SDS011;19459;53.044;8.910;2023-10-08T07:36:43;5.43;;;2.58;;
33094;SDS011;19459;53.044;8.910;2023-10-08T07:39:12;13.45;;;2.47;;
33094;SDS011;19459;53.044;8.910;2023-10-08T07:41:52;10.70;;;2.70;;
33094;SDS011;19459;53.044;8.910;2023-10-08T07:44:19;9.93;;;2.58;;
33094;SDS011;19459;53.044;8.910;2023-10-08T07:46:49;19.17;;;3.05;;
33094;SDS011;19459;53.044;8.910;2023-10-08T07:49:19;9.95;;;2.25;;
33094;SDS011;19459;53.044;8.910;2023-10-08T07:51:48;7.93;;;2.15;;
33094;SDS011;19459;53.044;8.910;2023-10-08T07:54:18;16.98;;;3.15;;
33094;SDS011;19459;53.044;8.910;2023-10-08T07:56:47;16.88;;;3.17;;
33094;SDS011;19459;53.044;8.910;2023-10-08T07:59:13;9.38;;;2.90;;
33094;SDS011;19459;53.044;8.910;2023-10-08T08:01:43;5.78;;;2.47;;
33094;SDS011;19459;53.044;8.910;2023-10-08T08:04:12;8.57;;;2.28;;
33094;SDS011;19459;53.044;8.910;2023-10-08T08:06:50;9.93;;;2.47;;
33094;SDS011;19459;53.044;8.910;2023-10-08T08:09:18;12.07;;;2.28;;
33094;SDS011;19459;53.044;8.910;2023-10-08T08:11:48;12.00;;;2.20;;
33094;SDS011;19459;53.044;8.910;2023-10-08T08:14:15;11.20;;;2.10;;
33094;SDS011;19459;53.044;8.910;2023-10-08T08:16:49;9.48;;;1.83;;
33094;SDS011;19459;53.044;8.910;2023-10-08T08:19:16;10.60;;;2.17;;
33094;SDS011;19459;53.044;8.910;2023-10-08T08:21:49;3.53;;;1.60;;
33094;SDS011;19459;53.044;8.910;2023-10-08T08:24:17;10.73;;;2.85;;
33094;SDS011;19459;53.044;8.910;2023-10-08T08:26:57;14.88;;;2.17;;
33094;SDS011;19459;53.044;8.910;2023-10-08T08:29:27;6.85;;;1.77;;
33094;SDS011;19459;53.044;8.910;2023-10-08T08:31:54;10.85;;;2.50;;
33094;SDS011;19459;53.044;8.910;2023-10-08T08:34:21;13.32;;;2.35;;
33094;SDS011;19459;53.044;8.910;2023-10-08T08:36:49;10.68;;;1.80;;
33094;SDS011;19459;53.044;8.910;2023-10-08T08:39:15;9.52;;;2.13;;
33094;SDS011;19459;53.044;8.910;2023-10-08T08:41:54;8.57;;;1.70;;
33094;SDS011;19459;53.044;8.910;2023-10-08T08:44:28;9.48;;;1.70;;
33094;SDS011;19459;53.044;8.910;2023-10-08T08:47:11;13.15;;;2.60;;
33094;SDS011;19459;53.044;8.910;2023-10-08T08:49:43;9.45;;;1.73;;
33094;SDS011;19459;53.044;8.910;2023-10-08T08:52:13;8.88;;;2.05;;
33094;SDS011;19459;53.044;8.910;2023-10-08T08:54:42;5.80;;;1.60;;
33094;SDS011;19459;53.044;8.910;2023-10-08T08:57:08;6.35;;;1.67;;
33094;SDS011;19459;53.044;8.910;2023-10-08T09:00:00;8.63;;;1.73;;
33094;SDS011;19459;53.044;8.910;2023-10-08T09:02:25;9.40;;;2.20;;
33094;SDS011;19459;53.044;8.910;2023-10-08T09:04:50;9.32;;;2.60;;
33094;SDS011;19459;53.044;8.910;2023-10-08T09:07:20;8.23;;;1.90;;
33094;SDS011;19459;53.044;8.910;2023-10-08T09:09:49;7.88;;;1.67;;
33094;SDS011;19459;53.044;8.910;2023-10-08T09:12:16;7.63;;;1.90;;
33094;SDS011;19459;53.044;8.910;2023-10-08T09:14:42;7.45;;;1.80;;
33094;SDS011;19459;53.044;8.910;2023-10-08T09:17:09;7.63;;;2.88;;
33094;SDS011;19459;53.044;8.910;2023-10-08T09:19:37;6.45;;;1.95;;
33094;SDS011;19459;53.044;8.910;2023-10-08T09:22:05;9.85;;;2.25;;
33094;SDS011;19459;53.044;8.910;2023-10-08T09:24:37;10.27;;;2.13;;
33094;SDS011;19459;53.044;8.910;2023-10-08T09:27:05;11.13;;;2.30;;
33094;SDS011;19459;53.044;8.910;2023-10-08T09:29:39;9.23;;;1.95;;
33094;SDS011;19459;53.044;8.910;2023-10-08T09:32:08;7.38;;;2.95;;
33094;SDS011;19459;53.044;8.910;2023-10-08T09:34:36;4.60;;;1.98;;
33094;SDS011;19459;53.044;8.910;2023-10-08T09:37:02;12.43;;;2.00;;
33094;SDS011;19459;53.044;8.910;2023-10-08T09:39:28;7.03;;;1.48;;
33094;SDS011;19459;53.044;8.910;2023-10-08T09:41:59;11.43;;;2.22;;
33094;SDS011;19459;53.044;8.910;2023-10-08T09:44:36;6.15;;;1.50;;
33094;SDS011;19459;53.044;8.910;2023-10-08T09:47:03;6.45;;;2.10;;
33094;SDS011;19459;53.044;8.910;2023-10-08T09:49:38;5.95;;;1.50;;
33094;SDS011;19459;53.044;8.910;2023-10-08T09:52:07;8.13;;;1.63;;
33094;SDS011;19459;53.044;8.910;2023-10-08T09:54:47;5.20;;;1.50;;
33094;SDS011;19459;53.044;8.910;2023-10-08T09:57:28;9.80;;;1.63;;
33094;SDS011;19459;53.044;8.910;2023-10-08T09:59:55;9.68;;;2.08;;
33094;SDS011;19459;53.044;8.910;2023-10-08T10:02:23;15.07;;;2.38;;
33094;SDS011;19459;53.044;8.910;2023-10-08T10:04:52;7.53;;;1.80;;
33094;SDS011;19459;53.044;8.910;2023-10-08T10:07:20;12.00;;;2.50;;
33094;SDS011;19459;53.044;8.910;2023-10-08T10:09:49;11.73;;;2.08;;
33094;SDS011;19459;53.044;8.910;2023-10-08T10:12:19;8.05;;;1.70;;
33094;SDS011;19459;53.044;8.910;2023-10-08T10:14:51;13.73;;;2.20;;
33094;SDS011;19459;53.044;8.910;2023-10-08T10:17:24;8.25;;;1.92;;
33094;SDS011;19459;53.044;8.910;2023-10-08T10:19:59;8.50;;;1.50;;
33094;SDS011;19459;53.044;8.910;2023-10-08T10:22:27;9.10;;;1.70;;
33094;SDS011;19459;53.044;8.910;2023-10-08T10:24:59;8.35;;;1.70;;
33094;SDS011;19459;53.044;8.910;2023-10-08T10:27:42;10.35;;;1.40;;
33094;SDS011;19459;53.044;8.910;2023-10-08T10:30:23;5.03;;;2.22;;
33094;SDS011;19459;53.044;8.910;2023-10-08T10:32:53;9.15;;;1.40;;
33094;SDS011;19459;53.044;8.910;2023-10-08T10:35:20;9.80;;;2.55;;
33094;SDS011;19459;53.044;8.910;2023-10-08T10:37:46;5.40;;;1.65;;
33094;SDS011;19459;53.044;8.910;2023-10-08T10:40:24;8.23;;;1.73;;
33094;SDS011;19459;53.044;8.910;2023-10-08T10:43:07;9.20;;;1.67;;
33094;SDS011;19459;53.044;8.910;2023-10-08T10:45:40;8.63;;;2.33;;
33094;SDS011;19459;53.044;8.910;2023-10-08T10:48:11;7.68;;;1.58;;
33094;SDS011;19459;53.044;8.910;2023-10-08T10:50:49;7.03;;;1.73;;
33094;SDS011;19459;53.044;8.910;2023-10-08T10:53:35;8.65;;;1.55;;
33094;SDS011;19459;53.044;8.910;2023-10-08T10:56:38;8.13;;;1.20;;
33094;SDS011;19459;53.044;8.910;2023-10-08T10:59:08;6.15;;;1.60;;
33094;SDS011;19459;53.044;8.910;2023-10-08T11:01:52;9.13;;;1.90;;
33094;SDS011;19459;53.044;8.910;2023-10-08T11:04:31;7.13;;;1.58;;
33094;SDS011;19459;53.044;8.910;2023-10-08T11:06:58;8.23;;;2.47;;
33094;SDS011;19459;53.044;8.910;2023-10-08T11:09:25;11.23;;;2.20;;
33094;SDS011;19459;53.044;8.910;2023-10-08T11:12:02;9.13;;;1.85;;
33094;SDS011;19459;53.044;8.910;2023-10-08T11:14:39;9.52;;;2.38;;
33094;SDS011;19459;53.044;8.910;2023-10-08T11:19:53;5.32;;;1.38;;
33094;SDS011;19459;53.044;8.910;2023-10-08T11:22:19;8.73;;;1.98;;
33094;SDS011;19459;53.044;8.910;2023-10-08T11:24:47;10.38;;;1.88;;
33094;SDS011;19459;53.044;8.910;2023-10-08T11:27:18;8.60;;;2.58;;
33094;SDS011;19459;53.044;8.910;2023-10-08T11:29:54;8.57;;;1.80;;
33094;SDS011;19459;53.044;8.910;2023-10-08T11:32:25;8.23;;;2.15;;
33094;SDS011;19459;53.044;8.910;2023-10-08T11:34:58;7.72;;;1.52;;
33094;SDS011;19459;53.044;8.910;2023-10-08T11:37:31;7.53;;;1.33;;
33094;SDS011;19459;53.044;8.910;2023-10-08T11:40:01;8.30;;;1.52;;
33094;SDS011;19459;53.044;8.910;2023-10-08T11:42:42;6.25;;;1.35;;
33094;SDS011;19459;53.044;8.910;2023-10-08T11:45:09;5.63;;;1.77;;
33094;SDS011;19459;53.044;8.910;2023-10-08T11:47:52;4.20;;;1.30;;
33094;SDS011;19459;53.044;8.910;2023-10-08T11:50:25;7.55;;;2.58;;
33094;SDS011;19459;53.044;8.910;2023-10-08T11:53:01;8.95;;;1.88;;
33094;SDS011;19459;53.044;8.910;2023-10-08T11:55:34;7.25;;;1.77;;
33094;SDS011;19459;53.044;8.910;2023-10-08T11:58:04;7.57;;;1.65;;
33094;SDS011;19459;53.044;8.910;2023-10-08T12:03:09;6.78;;;1.67;;
33094;SDS011;19459;53.044;8.910;2023-10-08T12:08:16;4.70;;;1.80;;
33094;SDS011;19459;53.044;8.910;2023-10-08T12:10:46;7.07;;;1.92;;
33094;SDS011;19459;53.044;8.910;2023-10-08T12:13:13;5.10;;;1.98;;
33094;SDS011;19459;53.044;8.910;2023-10-08T12:15:43;7.60;;;1.60;;
33094;SDS011;19459;53.044;8.910;2023-10-08T12:18:09;9.18;;;2.05;;
33094;SDS011;19459;53.044;8.910;2023-10-08T12:20:51;11.80;;;1.67;;
33094;SDS011;19459;53.044;8.910;2023-10-08T12:23:18;7.05;;;1.80;;
33094;SDS011;19459;53.044;8.910;2023-10-08T12:25:54;10.45;;;1.73;;
33094;SDS011;19459;53.044;8.910;2023-10-08T12:28:23;6.75;;;1.52;;
33094;SDS011;19459;53.044;8.910;2023-10-08T12:30:50;4.65;;;1.67;;
33094;SDS011;19459;53.044;8.910;2023-10-08T12:33:19;7.75;;;1.63;;
33094;SDS011;19459;53.044;8.910;2023-10-08T12:35:46;10.40;;;2.00;;
33094;SDS011;19459;53.044;8.910;2023-10-08T12:38:14;7.55;;;1.90;;
33094;SDS011;19459;53.044;8.910;2023-10-08T12:40:40;8.02;;;1.73;;
33094;SDS011;19459;53.044;8.910;2023-10-08T12:43:29;3.55;;;1.42;;
33094;SDS011;19459;53.044;8.910;2023-10-08T12:45:55;8.57;;;1.92;;
33094;SDS011;19459;53.044;8.910;2023-10-08T12:48:22;11.85;;;1.65;;
33094;SDS011;19459;53.044;8.910;2023-10-08T12:50:51;11.10;;;1.92;;
33094;SDS011;19459;53.044;8.910;2023-10-08T12:53:24;7.53;;;1.63;;
33094;SDS011;19459;53.044;8.910;2023-10-08T12:55:55;7.07;;;1.50;;
33094;SDS011;19459;53.044;8.910;2023-10-08T12:58:23;11.82;;;1.98;;
33094;SDS011;19459;53.044;8.910;2023-10-08T13:00:51;10.93;;;1.95;;
33094;SDS011;19459;53.044;8.910;2023-10-08T13:03:28;5.35;;;1.58;;
33094;SDS011;19459;53.044;8.910;2023-10-08T13:05:58;11.52;;;2.05;;
33094;SDS011;19459;53.044;8.910;2023-10-08T13:08:30;9.80;;;2.95;;
33094;SDS011;19459;53.044;8.910;2023-10-08T13:10:57;9.90;;;2.85;;
33094;SDS011;19459;53.044;8.910;2023-10-08T13:13:26;8.70;;;2.00;;
33094;SDS011;19459;53.044;8.910;2023-10-08T13:15:54;14.20;;;2.15;;
33094;SDS011;19459;53.044;8.910;2023-10-08T13:18:24;10.43;;;1.83;;
33094;SDS011;19459;53.044;8.910;2023-10-08T13:20:53;8.73;;;2.10;;
33094;SDS011;19459;53.044;8.910;2023-10-08T13:23:19;11.77;;;2.53;;
33094;SDS011;19459;53.044;8.910;2023-10-08T13:25:52;9.93;;;1.88;;
33094;SDS011;19459;53.044;8.910;2023-10-08T13:28:22;6.50;;;1.77;;
33094;SDS011;19459;53.044;8.910;2023-10-08T13:30:51;7.10;;;1.63;;
33094;SDS011;19459;53.044;8.910;2023-10-08T13:33:20;8.20;;;2.50;;
33094;SDS011;19459;53.044;8.910;2023-10-08T13:35:50;4.68;;;1.58;;
33094;SDS011;19459;53.044;8.910;2023-10-08T13:38:16;15.00;;;2.20;;
33094;SDS011;19459;53.044;8.910;2023-10-08T13:40:46;5.82;;;1.70;;
33094;SDS011;19459;53.044;8.910;2023-10-08T13:43:33;6.47;;;1.60;;
33094;SDS011;19459;53.044;8.910;2023-10-08T13:46:08;4.45;;;1.73;;
33094;SDS011;19459;53.044;8.910;2023-10-08T13:48:38;8.07;;;1.90;;
33094;SDS011;19459;53.044;8.910;2023-10-08T13:51:06;10.88;;;3.03;;
33094;SDS011;19459;53.044;8.910;2023-10-08T13:53:40;7.72;;;2.08;;
33094;SDS011;19459;53.044;8.910;2023-10-08T13:56:10;5.38;;;1.60;;
33094;SDS011;19459;53.044;8.910;2023-10-08T13:58:37;9.35;;;2.15;;
33094;SDS011;19459;53.044;8.910;2023-10-08T14:03:48;10.30;;;2.05;;
33094;SDS011;19459;53.044;8.910;2023-10-08T14:06:17;8.68;;;1.90;;
33094;SDS011;19459;53.044;8.910;2023-10-08T14:08:45;8.15;;;1.52;;
33094;SDS011;19459;53.044;8.910;2023-10-08T14:11:17;7.10;;;1.65;;
33094;SDS011;19459;53.044;8.910;2023-10-08T14:13:44;6.90;;;1.80;;
33094;SDS011;19459;53.044;8.910;2023-10-08T14:16:12;9.38;;;1.85;;
33094;SDS011;19459;53.044;8.910;2023-10-08T14:18:39;7.38;;;1.70;;
33094;SDS011;19459;53.044;8.910;2023-10-08T14:21:08;5.75;;;1.58;;
33094;SDS011;19459;53.044;8.910;2023-10-08T14:23:35;12.30;;;2.10;;
33094;SDS011;19459;53.044;8.910;2023-10-08T14:26:04;8.10;;;1.60;;
33094;SDS011;19459;53.044;8.910;2023-10-08T14:28:34;7.30;;;1.80;;
33094;SDS011;19459;53.044;8.910;2023-10-08T14:31:17;14.77;;;2.80;;
33094;SDS011;19459;53.044;8.910;2023-10-08T14:33:47;11.75;;;2.15;;
33094;SDS011;19459;53.044;8.910;2023-10-08T14:36:46;5.30;;;1.40;;
33094;SDS011;19459;53.044;8.910;2023-10-08T14:39:32;13.13;;;2.22;;
33094;SDS011;19459;53.044;8.910;2023-10-08T14:42:17;5.75;;;1.80;;
33094;SDS011;19459;53.044;8.910;2023-10-08T14:45:02;7.45;;;1.85;;
33094;SDS011;19459;53.044;8.910;2023-10-08T14:47:31;15.43;;;2.80;;
33094;SDS011;19459;53.044;8.910;2023-10-08T14:49:56;8.00;;;1.92;;
33094;SDS011;19459;53.044;8.910;2023-10-08T14:52:23;6.95;;;1.80;;
33094;SDS011;19459;53.044;8.910;2023-10-08T14:54:50;10.52;;;2.13;;
33094;SDS011;19459;53.044;8.910;2023-10-08T14:57:16;7.65;;;2.47;;
33094;SDS011;19459;53.044;8.910;2023-10-08T14:59:43;6.50;;;1.50;;
33094;SDS011;19459;53.044;8.910;2023-10-08T15:02:09;6.78;;;1.85;;
33094;SDS011;19459;53.044;8.910;2023-10-08T15:04:37;5.20;;;1.95;;
33094;SDS011;19459;53.044;8.910;2023-10-08T15:07:06;6.70;;;1.80;;
33094;SDS011;19459;53.044;8.910;2023-10-08T15:09:36;4.20;;;1.85;;
33094;SDS011;19459;53.044;8.910;2023-10-08T15:12:04;5.55;;;1.75;;
33094;SDS011;19459;53.044;8.910;2023-10-08T15:14:33;16.70;;;2.30;;
33094;SDS011;19459;53.044;8.910;2023-10-08T15:17:00;8.40;;;2.15;;
33094;SDS011;19459;53.044;8.910;2023-10-08T15:19:26;8.18;;;1.60;;
33094;SDS011;19459;53.044;8.910;2023-10-08T15:21:52;11.52;;;3.20;;
33094;SDS011;19459;53.044;8.910;2023-10-08T15:24:21;6.22;;;1.92;;
33094;SDS011;19459;53.044;8.910;2023-10-08T15:26:48;7.13;;;1.63;;
33094;SDS011;19459;53.044;8.910;2023-10-08T15:29:18;6.80;;;1.88;;
33094;SDS011;19459;53.044;8.910;2023-10-08T15:31:51;9.23;;;2.28;;